Lake Stevens, WA (98258)

10:11 AM PDT on September 18, 2014 (GMT -0700)
Catherine Creek | Change Station
CLOSE
Current Station
Personal Weather Station
Location: Lake Stevens, WA
Elevation: 246 ft
Nearby Weather Stations
4.0 Earthquake: Seabeck, Washington (1 day ago)  

Elev 246 ft 48.03 °N, 122.06 °W | Updated 1 second ago

Overcast
Overcast
60.3 °F
Feels Like 60.3 °F
N
1.6
Wind Variable Wind from South
Gusts 3.8 mph

Today
High -- | Low -- °F
--% Chance of Precip.
Yesterday
High -- | Low -- °F
Precip. -- in
6:49 AM 7:14 PM
Waning Crescent, 26% visible
Pressure 29.81 in
Visibility 5.0 miles
Clouds Overcast 1300 ft
Dew Point 60 °F
Humidity 99%
Rainfall 0.18 in
Snow Depth 0 in , 0 in , 0 in
UV 1 out of 12
Pollen .40 out of 12
PM2.5 Moderate
Flu Activity Not available.
METAR KAWO 181655Z AUTO 19003KT 5SM OVC013 16/14 A2981 RMK AO1 P0002

More Conditions Fewer Conditions

Pressure 29.81 in
Visibility 5.0 miles
Clouds Overcast 1300 ft
Dew Point 60 °F
Humidity 99%
Rainfall 0.18 in
Snow Depth 0 in , 0 in , 0 in
UV 1 out of 12
Pollen .40 out of 12
PM2.5 Moderate
Flu Activity Not available.
METAR KAWO 181655Z AUTO 19003KT 5SM OVC013 16/14 A2981 RMK AO1 P0002

More Conditions Fewer Conditions

10-Day Weather Forecast

Almanac

Astronomy

Sep. 18, 2014 Rise Set
Actual Time 6:49 AM PDT 7:14 PM PDT
Civil Twilight 6:18 AM PDT 7:45 PM PDT
Nautical Twilight 5:41 AM PDT 8:21 PM PDT
Astronomical Twilight 5:03 AM PDT 9:00 PM PDT
Moon 1:28 AM PDT 4:24 PM PDT
Length of Visible Light 13h 26m
Length of Day
12h 24m
Tomorrow will be 3m 27s shorter.
Waning Crescent, 26% of the Moon is Illuminated
Today
Waning Crescent
Sep 24
New
Oct 1
First Quarter
Oct 8
Full
Oct 15
Last Quarter

Today's Extremes

State Highs State Lows

Community

WunderPhotos

Upload Photos

1,754,402 photos uploaded!

Nearby

Air Quality

  Air Quality AQ Index Pollutant
Yesterday Moderate
PM2.5
Yesterday Good
OZONE
Current Moderate
PM2.5
Thursday Good
OZONE
Thursday Good
PM2.5
Friday Good
PM2.5
Friday Good
OZONE
Saturday Good
PM2.5
Saturday Good
OZONE
Sunday Good
PM2.5
Sunday Good
OZONE
Monday Good
OZONE
Monday Good
PM2.5
Tuesday Good
OZONE
Tuesday Good
PM2.5

Snow Depth

Station Depth Elevation
Meadows Pass 0 in 3500 ft
Park Creek Ridge 0 in 4600 ft
Skookum Creek 0 in 3920 ft
Touchet 0 in 5530 ft
Fish Lake 0 in 3371 ft

Earthquake Activity

City Distance Mag. Time & Date
Seabeck, Washington 54 miles 4.0 3:06 AM PDT
2014-09-17
Morton, Washington 118 miles 3.0 5:43 AM PDT
2014-09-16
Minimum magnitude displayed is 2.5.

Coastal Water Temperatures

Place Temperature
Port Townsend, WA 53.1 °F
Seattle, WA 55.9 °F
Friday Harbor, WA 53.1 °F
Tacoma, WA 55.9 °F

Nearby Weather Stations